Weather at Haakdoornboom Airport

Public forecast

Using degrees Celsius for public forecast. Weather courtesy of forecast.io.

Closest aviation weather report (METAR) to Haakdoornboom Airport

Closest report is Wonderboom Airport, 7.1 nm (13.2 km) SE. Retrieved 2021/06/15 19:00 UTC (46 minutes ago):

FAWB 151900Z AUTO 15001KT //// // ////// 08/02 Q1022

Closest aviation forecast (TAF) to Haakdoornboom Airport

Forecast is more than 12 hours old.

Closest forecast is Wonderboom Airport, 7.1 nm (13.2 km) SE. Retrieved 2021/05/05 07:00 UTC (1 month ago):

TAF FAWB 050608Z 0507/0518 VRB03KT CAVOK TX24/0512Z TN15/0518Z